Old Joe, Arkansas
Current Conditions -  °F | °C
As of 8:53 PM on Monday 20 Oct 2014 (Local Time) from KBPK Reporting Station
Clear Clear  
Wind Chill: 62°   Ceiling: Unl
Heat Index: 62°   Visibility: 9mi
Dew Point: 58°   Wind: 3mph
Humidity: 86%   Direction: 250°WSW
Pressure: 30.03"   Gusts: NA
Location:  36.2155°N, 92.269°W
Report Text: KBPK 210153Z AUTO 25003KT 9SM CLR 17/14 A3003 RMK AO2 SLP164 T01670144
Loading
Personal Weather Stations






























Interactive Weather Map
Tropical Storm Tracking
New forecast layout! Learn more

10-Day Weather Forecast

Advertisements
Track Severe Weather on mobile